Fernandes Tourinho, Brazil
Current Conditions -  °F | °C
As of 5:00 PM on Monday 22 Dec 2014 (Local Time) from SBLS Reporting Station
Broken Clouds Broken Clouds  
Wind Chill: 82°   Ceiling: 2300
Heat Index: 85°   Visibility: 6mi
Dew Point: 66°   Wind: 7mph
Humidity: 58%   Direction: 340°NNW
Pressure: 29.94"   Gusts: NA
Location:  19.15°S, 42.08°W
Report Text: SBLS 221900Z 34006KT 9999 BKN023 BKN100 28/19 Q1014
Loading
Personal Weather Stations






























Interactive Weather Map New forecast layout! Learn more

10-Day Weather Forecast

Advertisements
Track Severe Weather on mobile